sensor_id;sensor_type;location;lat;lon;timestamp;temperature;humidity
37806;DHT22;25082;50.870;0.022;2024-03-02T00:01:30;19.20;58.40
37806;DHT22;25082;50.870;0.022;2024-03-02T00:03:55;19.20;58.40
37806;DHT22;25082;50.870;0.022;2024-03-02T00:06:21;19.20;58.40
37806;DHT22;25082;50.870;0.022;2024-03-02T00:08:47;19.20;58.40
37806;DHT22;25082;50.870;0.022;2024-03-02T00:11:13;19.20;58.50
37806;DHT22;25082;50.870;0.022;2024-03-02T00:13:40;19.20;58.20
37806;DHT22;25082;50.870;0.022;2024-03-02T00:16:06;19.20;58.30
37806;DHT22;25082;50.870;0.022;2024-03-02T00:18:34;19.20;58.30
37806;DHT22;25082;50.870;0.022;2024-03-02T00:21:01;19.10;58.20
37806;DHT22;25082;50.870;0.022;2024-03-02T00:23:30;19.10;58.20
37806;DHT22;25082;50.870;0.022;2024-03-02T00:25:57;19.10;58.10
37806;DHT22;25082;50.870;0.022;2024-03-02T00:28:36;19.10;57.90
37806;DHT22;25082;50.870;0.022;2024-03-02T00:31:11;19.10;58.00
37806;DHT22;25082;50.870;0.022;2024-03-02T00:33:47;19.00;58.00
37806;DHT22;25082;50.870;0.022;2024-03-02T00:36:15;19.00;57.90
37806;DHT22;25082;50.870;0.022;2024-03-02T00:38:49;19.00;57.90
37806;DHT22;25082;50.870;0.022;2024-03-02T00:46:23;19.00;57.80
37806;DHT22;25082;50.870;0.022;2024-03-02T00:51:18;19.00;57.70
37806;DHT22;25082;50.870;0.022;2024-03-02T00:53:44;19.00;57.70
37806;DHT22;25082;50.870;0.022;2024-03-02T00:56:11;19.00;57.70
37806;DHT22;25082;50.870;0.022;2024-03-02T00:58:38;19.00;57.70
37806;DHT22;25082;50.870;0.022;2024-03-02T01:01:04;18.90;57.60
37806;DHT22;25082;50.870;0.022;2024-03-02T01:03:31;18.90;57.60
37806;DHT22;25082;50.870;0.022;2024-03-02T01:05:57;18.90;57.60
37806;DHT22;25082;50.870;0.022;2024-03-02T01:08:23;18.90;57.60
37806;DHT22;25082;50.870;0.022;2024-03-02T01:10:49;18.90;57.40
37806;DHT22;25082;50.870;0.022;2024-03-02T01:13:15;18.90;57.60
37806;DHT22;25082;50.870;0.022;2024-03-02T01:15:41;18.90;57.40
37806;DHT22;25082;50.870;0.022;2024-03-02T01:18:06;18.80;57.50
37806;DHT22;25082;50.870;0.022;2024-03-02T01:20:33;18.80;57.40
37806;DHT22;25082;50.870;0.022;2024-03-02T01:22:59;18.80;57.40
37806;DHT22;25082;50.870;0.022;2024-03-02T01:25:24;18.80;57.40
37806;DHT22;25082;50.870;0.022;2024-03-02T01:27:50;18.80;57.40
37806;DHT22;25082;50.870;0.022;2024-03-02T01:30:16;18.80;57.40
37806;DHT22;25082;50.870;0.022;2024-03-02T01:32:42;18.80;57.40
37806;DHT22;25082;50.870;0.022;2024-03-02T01:35:08;18.80;57.40
37806;DHT22;25082;50.870;0.022;2024-03-02T01:37:34;18.80;57.40
37806;DHT22;25082;50.870;0.022;2024-03-02T01:40:00;18.70;57.30
37806;DHT22;25082;50.870;0.022;2024-03-02T01:42:26;18.80;57.40
37806;DHT22;25082;50.870;0.022;2024-03-02T01:44:52;18.70;57.40
37806;DHT22;25082;50.870;0.022;2024-03-02T01:47:18;18.70;57.30
37806;DHT22;25082;50.870;0.022;2024-03-02T01:49:44;18.70;57.90
37806;DHT22;25082;50.870;0.022;2024-03-02T01:52:09;18.70;57.30
37806;DHT22;25082;50.870;0.022;2024-03-02T01:54:36;18.70;57.30
37806;DHT22;25082;50.870;0.022;2024-03-02T01:57:03;18.70;57.30
37806;DHT22;25082;50.870;0.022;2024-03-02T01:59:30;18.70;57.20
37806;DHT22;25082;50.870;0.022;2024-03-02T02:01:56;18.60;57.20
37806;DHT22;25082;50.870;0.022;2024-03-02T02:04:22;18.70;57.30
37806;DHT22;25082;50.870;0.022;2024-03-02T02:06:52;18.70;57.30
37806;DHT22;25082;50.870;0.022;2024-03-02T02:09:18;18.60;57.10
37806;DHT22;25082;50.870;0.022;2024-03-02T02:11:44;18.60;57.20
37806;DHT22;25082;50.870;0.022;2024-03-02T02:14:10;18.60;57.20
37806;DHT22;25082;50.870;0.022;2024-03-02T02:16:36;18.60;57.30
37806;DHT22;25082;50.870;0.022;2024-03-02T02:19:02;18.60;57.20
37806;DHT22;25082;50.870;0.022;2024-03-02T02:21:28;18.60;57.20
37806;DHT22;25082;50.870;0.022;2024-03-02T02:23:54;18.60;57.20
37806;DHT22;25082;50.870;0.022;2024-03-02T02:26:20;18.60;57.20
37806;DHT22;25082;50.870;0.022;2024-03-02T02:28:45;18.60;57.20
37806;DHT22;25082;50.870;0.022;2024-03-02T02:31:14;18.50;57.10
37806;DHT22;25082;50.870;0.022;2024-03-02T02:33:41;18.50;57.10
37806;DHT22;25082;50.870;0.022;2024-03-02T02:36:07;18.50;57.20
37806;DHT22;25082;50.870;0.022;2024-03-02T02:38:39;18.50;57.20
37806;DHT22;25082;50.870;0.022;2024-03-02T02:41:06;18.50;57.20
37806;DHT22;25082;50.870;0.022;2024-03-02T02:43:31;18.50;57.20
37806;DHT22;25082;50.870;0.022;2024-03-02T02:45:57;18.50;57.30
37806;DHT22;25082;50.870;0.022;2024-03-02T02:48:23;18.50;57.20
37806;DHT22;25082;50.870;0.022;2024-03-02T02:50:49;18.50;57.20
37806;DHT22;25082;50.870;0.022;2024-03-02T02:53:14;18.50;57.20
37806;DHT22;25082;50.870;0.022;2024-03-02T02:55:40;18.40;57.10
37806;DHT22;25082;50.870;0.022;2024-03-02T02:58:07;18.40;57.10
37806;DHT22;25082;50.870;0.022;2024-03-02T03:00:33;18.40;57.20
37806;DHT22;25082;50.870;0.022;2024-03-02T03:02:59;18.40;57.20
37806;DHT22;25082;50.870;0.022;2024-03-02T03:05:25;18.40;57.20
37806;DHT22;25082;50.870;0.022;2024-03-02T03:07:51;18.40;57.10
37806;DHT22;25082;50.870;0.022;2024-03-02T03:10:17;18.40;57.20
37806;DHT22;25082;50.870;0.022;2024-03-02T03:12:43;18.40;57.10
37806;DHT22;25082;50.870;0.022;2024-03-02T03:15:10;18.40;57.20
37806;DHT22;25082;50.870;0.022;2024-03-02T03:17:36;18.40;57.20
37806;DHT22;25082;50.870;0.022;2024-03-02T03:20:03;18.30;57.20
37806;DHT22;25082;50.870;0.022;2024-03-02T03:22:32;18.30;57.10
37806;DHT22;25082;50.870;0.022;2024-03-02T03:24:58;18.30;57.10
37806;DHT22;25082;50.870;0.022;2024-03-02T03:27:24;18.30;57.20
37806;DHT22;25082;50.870;0.022;2024-03-02T03:29:49;18.30;57.10
37806;DHT22;25082;50.870;0.022;2024-03-02T03:32:15;18.30;57.10
37806;DHT22;25082;50.870;0.022;2024-03-02T03:34:42;18.30;57.10
37806;DHT22;25082;50.870;0.022;2024-03-02T03:37:08;18.30;57.20
37806;DHT22;25082;50.870;0.022;2024-03-02T03:39:34;18.30;57.10
37806;DHT22;25082;50.870;0.022;2024-03-02T03:42:01;18.30;57.20
37806;DHT22;25082;50.870;0.022;2024-03-02T03:44:27;18.30;57.20
37806;DHT22;25082;50.870;0.022;2024-03-02T03:46:52;18.20;57.10
37806;DHT22;25082;50.870;0.022;2024-03-02T03:49:18;18.20;57.20
37806;DHT22;25082;50.870;0.022;2024-03-02T03:51:44;18.20;57.10
37806;DHT22;25082;50.870;0.022;2024-03-02T03:54:10;18.20;57.10
37806;DHT22;25082;50.870;0.022;2024-03-02T03:56:37;18.20;57.10
37806;DHT22;25082;50.870;0.022;2024-03-02T03:59:03;18.20;57.10
37806;DHT22;25082;50.870;0.022;2024-03-02T04:01:30;18.20;57.10
37806;DHT22;25082;50.870;0.022;2024-03-02T04:03:57;18.20;57.10
37806;DHT22;25082;50.870;0.022;2024-03-02T04:06:23;18.20;57.10
37806;DHT22;25082;50.870;0.022;2024-03-02T04:08:49;18.20;57.10
37806;DHT22;25082;50.870;0.022;2024-03-02T04:11:15;18.10;57.10
37806;DHT22;25082;50.870;0.022;2024-03-02T04:13:41;18.10;57.00
37806;DHT22;25082;50.870;0.022;2024-03-02T04:16:06;18.10;57.10
37806;DHT22;25082;50.870;0.022;2024-03-02T04:18:32;18.10;57.10
37806;DHT22;25082;50.870;0.022;2024-03-02T04:20:58;18.10;57.10
37806;DHT22;25082;50.870;0.022;2024-03-02T04:23:27;18.10;57.10
37806;DHT22;25082;50.870;0.022;2024-03-02T04:25:52;18.10;57.10
37806;DHT22;25082;50.870;0.022;2024-03-02T04:28:18;18.10;57.10
37806;DHT22;25082;50.870;0.022;2024-03-02T04:30:44;18.10;57.20
37806;DHT22;25082;50.870;0.022;2024-03-02T04:33:10;18.10;57.00
37806;DHT22;25082;50.870;0.022;2024-03-02T04:35:36;18.10;57.10
37806;DHT22;25082;50.870;0.022;2024-03-02T04:38:02;18.10;57.10
37806;DHT22;25082;50.870;0.022;2024-03-02T04:40:28;18.10;57.10
37806;DHT22;25082;50.870;0.022;2024-03-02T04:42:54;18.00;57.00
37806;DHT22;25082;50.870;0.022;2024-03-02T04:45:20;18.00;57.00
37806;DHT22;25082;50.870;0.022;2024-03-02T04:47:45;18.00;57.10
37806;DHT22;25082;50.870;0.022;2024-03-02T04:50:11;18.00;57.10
37806;DHT22;25082;50.870;0.022;2024-03-02T04:52:37;18.00;57.00
37806;DHT22;25082;50.870;0.022;2024-03-02T04:55:04;18.00;57.10
37806;DHT22;25082;50.870;0.022;2024-03-02T04:57:55;18.00;57.10
37806;DHT22;25082;50.870;0.022;2024-03-02T05:00:21;18.00;57.00
37806;DHT22;25082;50.870;0.022;2024-03-02T05:02:47;18.00;57.10
37806;DHT22;25082;50.870;0.022;2024-03-02T05:05:13;18.00;57.10
37806;DHT22;25082;50.870;0.022;2024-03-02T05:07:41;18.00;57.00
37806;DHT22;25082;50.870;0.022;2024-03-02T05:10:11;17.90;57.00
37806;DHT22;25082;50.870;0.022;2024-03-02T05:12:40;17.90;57.00
37806;DHT22;25082;50.870;0.022;2024-03-02T05:15:09;17.90;57.30
37806;DHT22;25082;50.870;0.022;2024-03-02T05:17:42;17.90;57.00
37806;DHT22;25082;50.870;0.022;2024-03-02T05:20:11;17.90;57.00
37806;DHT22;25082;50.870;0.022;2024-03-02T05:22:37;17.90;57.00
37806;DHT22;25082;50.870;0.022;2024-03-02T05:25:04;17.90;57.10
37806;DHT22;25082;50.870;0.022;2024-03-02T05:27:31;17.90;57.00
37806;DHT22;25082;50.870;0.022;2024-03-02T05:29:58;17.90;57.10
37806;DHT22;25082;50.870;0.022;2024-03-02T05:32:24;17.80;57.00
37806;DHT22;25082;50.870;0.022;2024-03-02T05:34:50;17.80;57.00
37806;DHT22;25082;50.870;0.022;2024-03-02T05:37:18;17.90;57.10
37806;DHT22;25082;50.870;0.022;2024-03-02T05:39:45;17.80;57.00
37806;DHT22;25082;50.870;0.022;2024-03-02T05:42:11;17.80;57.00
37806;DHT22;25082;50.870;0.022;2024-03-02T05:44:37;17.80;57.00
37806;DHT22;25082;50.870;0.022;2024-03-02T05:47:03;17.80;57.00
37806;DHT22;25082;50.870;0.022;2024-03-02T05:49:29;17.80;57.00
37806;DHT22;25082;50.870;0.022;2024-03-02T05:51:55;17.80;57.00
37806;DHT22;25082;50.870;0.022;2024-03-02T05:54:21;17.80;57.00
37806;DHT22;25082;50.870;0.022;2024-03-02T05:56:47;17.80;57.10
37806;DHT22;25082;50.870;0.022;2024-03-02T05:59:13;17.80;57.10
37806;DHT22;25082;50.870;0.022;2024-03-02T06:01:43;17.80;57.10
37806;DHT22;25082;50.870;0.022;2024-03-02T06:04:10;17.70;57.20
37806;DHT22;25082;50.870;0.022;2024-03-02T06:06:39;17.80;57.10
37806;DHT22;25082;50.870;0.022;2024-03-02T06:09:05;17.70;57.00
37806;DHT22;25082;50.870;0.022;2024-03-02T06:11:38;17.70;57.00
37806;DHT22;25082;50.870;0.022;2024-03-02T06:14:05;17.70;57.10
37806;DHT22;25082;50.870;0.022;2024-03-02T06:16:31;17.70;57.10
37806;DHT22;25082;50.870;0.022;2024-03-02T06:18:57;17.70;57.20
37806;DHT22;25082;50.870;0.022;2024-03-02T06:21:27;17.70;57.20
37806;DHT22;25082;50.870;0.022;2024-03-02T06:23:53;17.70;57.20
37806;DHT22;25082;50.870;0.022;2024-03-02T06:26:19;17.70;57.20
37806;DHT22;25082;50.870;0.022;2024-03-02T06:28:46;17.70;57.20
37806;DHT22;25082;50.870;0.022;2024-03-02T06:31:11;17.70;57.20
37806;DHT22;25082;50.870;0.022;2024-03-02T06:33:37;17.60;57.10
37806;DHT22;25082;50.870;0.022;2024-03-02T06:36:04;17.60;57.10
37806;DHT22;25082;50.870;0.022;2024-03-02T06:38:30;17.60;57.10
37806;DHT22;25082;50.870;0.022;2024-03-02T06:40:57;17.60;57.10
37806;DHT22;25082;50.870;0.022;2024-03-02T06:43:24;17.60;57.20
37806;DHT22;25082;50.870;0.022;2024-03-02T06:45:51;17.60;57.20
37806;DHT22;25082;50.870;0.022;2024-03-02T06:48:17;17.60;57.20
37806;DHT22;25082;50.870;0.022;2024-03-02T06:50:49;17.60;57.20
37806;DHT22;25082;50.870;0.022;2024-03-02T06:53:16;17.60;57.20
37806;DHT22;25082;50.870;0.022;2024-03-02T06:55:46;17.60;57.20
37806;DHT22;25082;50.870;0.022;2024-03-02T06:58:14;17.50;57.20
37806;DHT22;25082;50.870;0.022;2024-03-02T07:00:43;17.60;57.30
37806;DHT22;25082;50.870;0.022;2024-03-02T07:03:13;17.60;57.20
37806;DHT22;25082;50.870;0.022;2024-03-02T07:05:39;17.60;57.90
37806;DHT22;25082;50.870;0.022;2024-03-02T07:08:05;17.60;57.30
37806;DHT22;25082;50.870;0.022;2024-03-02T07:10:31;17.50;57.30
37806;DHT22;25082;50.870;0.022;2024-03-02T07:12:57;17.50;57.30
37806;DHT22;25082;50.870;0.022;2024-03-02T07:15:23;17.50;57.30
37806;DHT22;25082;50.870;0.022;2024-03-02T07:18:07;17.50;57.30
37806;DHT22;25082;50.870;0.022;2024-03-02T07:20:33;17.50;57.30
37806;DHT22;25082;50.870;0.022;2024-03-02T07:22:59;17.50;57.10
37806;DHT22;25082;50.870;0.022;2024-03-02T07:25:24;17.50;57.20
37806;DHT22;25082;50.870;0.022;2024-03-02T07:27:50;17.60;57.20
37806;DHT22;25082;50.870;0.022;2024-03-02T07:30:16;17.60;57.20
37806;DHT22;25082;50.870;0.022;2024-03-02T07:32:42;17.60;57.30
37806;DHT22;25082;50.870;0.022;2024-03-02T07:35:12;17.60;57.40
37806;DHT22;25082;50.870;0.022;2024-03-02T07:37:38;17.70;57.50
37806;DHT22;25082;50.870;0.022;2024-03-02T07:40:04;17.60;57.30
37806;DHT22;25082;50.870;0.022;2024-03-02T07:42:30;17.70;57.20
37806;DHT22;25082;50.870;0.022;2024-03-02T07:44:56;17.70;57.10
37806;DHT22;25082;50.870;0.022;2024-03-02T07:47:22;17.70;57.00
37806;DHT22;25082;50.870;0.022;2024-03-02T07:49:47;17.80;57.10
37806;DHT22;25082;50.870;0.022;2024-03-02T07:52:13;17.80;57.10
37806;DHT22;25082;50.870;0.022;2024-03-02T07:54:39;17.80;57.10
37806;DHT22;25082;50.870;0.022;2024-03-02T07:57:05;17.80;57.10
37806;DHT22;25082;50.870;0.022;2024-03-02T07:59:30;17.80;57.10
37806;DHT22;25082;50.870;0.022;2024-03-02T08:01:56;17.80;57.70
37806;DHT22;25082;50.870;0.022;2024-03-02T08:04:22;17.80;57.10
37806;DHT22;25082;50.870;0.022;2024-03-02T08:06:48;17.90;57.20
37806;DHT22;25082;50.870;0.022;2024-03-02T08:09:14;17.90;57.20
37806;DHT22;25082;50.870;0.022;2024-03-02T08:11:40;17.90;57.30
37806;DHT22;25082;50.870;0.022;2024-03-02T08:14:06;17.90;57.30
37806;DHT22;25082;50.870;0.022;2024-03-02T08:16:31;18.00;57.30
37806;DHT22;25082;50.870;0.022;2024-03-02T08:18:59;18.00;57.40
37806;DHT22;25082;50.870;0.022;2024-03-02T08:21:25;18.00;57.30
37806;DHT22;25082;50.870;0.022;2024-03-02T08:23:51;18.00;57.40
37806;DHT22;25082;50.870;0.022;2024-03-02T08:26:17;18.00;57.30
37806;DHT22;25082;50.870;0.022;2024-03-02T08:28:43;18.10;57.40
37806;DHT22;25082;50.870;0.022;2024-03-02T08:31:09;18.10;57.40
37806;DHT22;25082;50.870;0.022;2024-03-02T08:33:35;18.10;57.30
37806;DHT22;25082;50.870;0.022;2024-03-02T08:36:01;18.10;57.30
37806;DHT22;25082;50.870;0.022;2024-03-02T08:38:27;18.10;57.30
37806;DHT22;25082;50.870;0.022;2024-03-02T08:40:53;18.10;57.30
37806;DHT22;25082;50.870;0.022;2024-03-02T08:43:19;18.10;57.30
37806;DHT22;25082;50.870;0.022;2024-03-02T08:45:45;18.10;57.30
37806;DHT22;25082;50.870;0.022;2024-03-02T08:48:12;18.10;57.30
37806;DHT22;25082;50.870;0.022;2024-03-02T08:50:38;18.20;57.30
37806;DHT22;25082;50.870;0.022;2024-03-02T08:53:04;18.20;57.30
37806;DHT22;25082;50.870;0.022;2024-03-02T08:55:30;18.20;57.30
37806;DHT22;25082;50.870;0.022;2024-03-02T08:57:56;18.20;57.30
37806;DHT22;25082;50.870;0.022;2024-03-02T09:00:22;18.20;57.30
37806;DHT22;25082;50.870;0.022;2024-03-02T09:02:48;18.30;57.40
37806;DHT22;25082;50.870;0.022;2024-03-02T09:05:14;18.30;57.40
37806;DHT22;25082;50.870;0.022;2024-03-02T09:07:40;18.30;57.40
37806;DHT22;25082;50.870;0.022;2024-03-02T09:10:07;18.30;57.40
37806;DHT22;25082;50.870;0.022;2024-03-02T09:12:33;18.30;57.40
37806;DHT22;25082;50.870;0.022;2024-03-02T09:15:04;18.30;57.60
37806;DHT22;25082;50.870;0.022;2024-03-02T09:17:31;18.30;58.20
37806;DHT22;25082;50.870;0.022;2024-03-02T09:19:56;18.30;58.60
37806;DHT22;25082;50.870;0.022;2024-03-02T09:22:23;18.30;58.80
37806;DHT22;25082;50.870;0.022;2024-03-02T09:24:49;18.30;59.00
37806;DHT22;25082;50.870;0.022;2024-03-02T09:27:15;18.40;59.30
37806;DHT22;25082;50.870;0.022;2024-03-02T09:29:41;18.40;59.50
37806;DHT22;25082;50.870;0.022;2024-03-02T09:32:07;18.30;59.40
37806;DHT22;25082;50.870;0.022;2024-03-02T09:34:34;18.40;59.60
37806;DHT22;25082;50.870;0.022;2024-03-02T09:36:59;18.40;59.60
37806;DHT22;25082;50.870;0.022;2024-03-02T09:39:25;18.40;59.70
37806;DHT22;25082;50.870;0.022;2024-03-02T09:41:51;18.40;59.70
37806;DHT22;25082;50.870;0.022;2024-03-02T09:44:18;18.40;59.80
37806;DHT22;25082;50.870;0.022;2024-03-02T09:46:43;18.40;60.00
37806;DHT22;25082;50.870;0.022;2024-03-02T09:49:12;18.40;60.00
37806;DHT22;25082;50.870;0.022;2024-03-02T09:51:39;18.40;60.10
37806;DHT22;25082;50.870;0.022;2024-03-02T09:54:07;18.40;60.10
37806;DHT22;25082;50.870;0.022;2024-03-02T09:56:33;18.50;60.30
37806;DHT22;25082;50.870;0.022;2024-03-02T09:58:59;18.40;60.30
37806;DHT22;25082;50.870;0.022;2024-03-02T10:01:25;18.50;60.40
37806;DHT22;25082;50.870;0.022;2024-03-02T10:03:51;18.50;59.10
37806;DHT22;25082;50.870;0.022;2024-03-02T10:06:24;18.40;58.50
37806;DHT22;25082;50.870;0.022;2024-03-02T10:08:51;18.40;59.60
37806;DHT22;25082;50.870;0.022;2024-03-02T10:11:33;18.40;59.70
37806;DHT22;25082;50.870;0.022;2024-03-02T10:14:12;18.40;59.70
37806;DHT22;25082;50.870;0.022;2024-03-02T10:16:40;18.40;59.70
37806;DHT22;25082;50.870;0.022;2024-03-02T10:19:19;18.40;59.70
37806;DHT22;25082;50.870;0.022;2024-03-02T10:21:48;18.40;59.70
37806;DHT22;25082;50.870;0.022;2024-03-02T10:24:18;18.50;59.80
37806;DHT22;25082;50.870;0.022;2024-03-02T10:26:44;18.50;59.90
37806;DHT22;25082;50.870;0.022;2024-03-02T10:29:10;18.40;59.90
37806;DHT22;25082;50.870;0.022;2024-03-02T10:31:41;18.50;59.90
37806;DHT22;25082;50.870;0.022;2024-03-02T10:34:10;18.50;59.80
37806;DHT22;25082;50.870;0.022;2024-03-02T10:36:37;18.50;59.80
37806;DHT22;25082;50.870;0.022;2024-03-02T10:39:06;18.50;59.80
37806;DHT22;25082;50.870;0.022;2024-03-02T10:41:35;18.60;59.90
37806;DHT22;25082;50.870;0.022;2024-03-02T10:44:05;18.60;60.00
37806;DHT22;25082;50.870;0.022;2024-03-02T10:46:33;18.60;60.00
37806;DHT22;25082;50.870;0.022;2024-03-02T10:49:00;18.60;60.00
37806;DHT22;25082;50.870;0.022;2024-03-02T10:51:27;18.60;60.00
37806;DHT22;25082;50.870;0.022;2024-03-02T10:53:54;18.60;60.10
37806;DHT22;25082;50.870;0.022;2024-03-02T10:56:39;18.50;60.10
37806;DHT22;25082;50.870;0.022;2024-03-02T10:59:21;18.50;60.10
37806;DHT22;25082;50.870;0.022;2024-03-02T11:01:50;18.60;60.20
37806;DHT22;25082;50.870;0.022;2024-03-02T11:04:21;18.50;60.20
37806;DHT22;25082;50.870;0.022;2024-03-02T11:06:50;18.50;60.20
37806;DHT22;25082;50.870;0.022;2024-03-02T11:09:19;18.60;60.20
37806;DHT22;25082;50.870;0.022;2024-03-02T11:11:52;18.60;60.70
37806;DHT22;25082;50.870;0.022;2024-03-02T11:14:24;18.70;60.20
37806;DHT22;25082;50.870;0.022;2024-03-02T11:16:51;18.70;60.30
37806;DHT22;25082;50.870;0.022;2024-03-02T11:19:18;18.70;60.30
37806;DHT22;25082;50.870;0.022;2024-03-02T11:21:44;18.70;60.30
37806;DHT22;25082;50.870;0.022;2024-03-02T11:26:54;18.70;60.30
37806;DHT22;25082;50.870;0.022;2024-03-02T11:32:22;18.70;60.30
37806;DHT22;25082;50.870;0.022;2024-03-02T11:34:51;18.70;60.30
37806;DHT22;25082;50.870;0.022;2024-03-02T11:37:20;18.70;60.30
37806;DHT22;25082;50.870;0.022;2024-03-02T11:39:48;18.70;60.20
37806;DHT22;25082;50.870;0.022;2024-03-02T11:42:15;18.70;60.20
37806;DHT22;25082;50.870;0.022;2024-03-02T11:44:48;18.70;60.20
37806;DHT22;25082;50.870;0.022;2024-03-02T11:47:15;18.80;60.20
37806;DHT22;25082;50.870;0.022;2024-03-02T11:49:42;18.80;60.30
37806;DHT22;25082;50.870;0.022;2024-03-02T11:52:10;18.80;60.30
37806;DHT22;25082;50.870;0.022;2024-03-02T11:54:41;18.80;60.20
37806;DHT22;25082;50.870;0.022;2024-03-02T11:57:23;18.80;60.20
37806;DHT22;25082;50.870;0.022;2024-03-02T11:59:49;18.80;60.20
37806;DHT22;25082;50.870;0.022;2024-03-02T12:02:19;18.90;60.20
37806;DHT22;25082;50.870;0.022;2024-03-02T12:04:47;18.90;60.20
37806;DHT22;25082;50.870;0.022;2024-03-02T12:07:22;18.90;60.30
37806;DHT22;25082;50.870;0.022;2024-03-02T12:10:01;18.90;60.20
37806;DHT22;25082;50.870;0.022;2024-03-02T12:12:27;18.90;60.10
37806;DHT22;25082;50.870;0.022;2024-03-02T12:14:53;19.00;60.10
37806;DHT22;25082;50.870;0.022;2024-03-02T12:17:21;19.00;60.00
37806;DHT22;25082;50.870;0.022;2024-03-02T12:19:48;19.10;60.00
37806;DHT22;25082;50.870;0.022;2024-03-02T12:22:14;19.10;59.90
37806;DHT22;25082;50.870;0.022;2024-03-02T12:24:41;19.10;59.80
37806;DHT22;25082;50.870;0.022;2024-03-02T12:27:11;19.20;59.90
37806;DHT22;25082;50.870;0.022;2024-03-02T12:29:38;19.20;59.90
37806;DHT22;25082;50.870;0.022;2024-03-02T12:32:05;19.20;59.80
37806;DHT22;25082;50.870;0.022;2024-03-02T12:34:31;19.20;59.80
37806;DHT22;25082;50.870;0.022;2024-03-02T12:36:57;19.20;59.90
37806;DHT22;25082;50.870;0.022;2024-03-02T12:39:23;19.20;59.90
37806;DHT22;25082;50.870;0.022;2024-03-02T12:41:51;19.20;59.90
37806;DHT22;25082;50.870;0.022;2024-03-02T12:44:19;19.20;59.90
37806;DHT22;25082;50.870;0.022;2024-03-02T12:46:46;19.20;59.90
37806;DHT22;25082;50.870;0.022;2024-03-02T12:49:13;19.20;60.00
37806;DHT22;25082;50.870;0.022;2024-03-02T12:51:42;19.10;59.90
37806;DHT22;25082;50.870;0.022;2024-03-02T12:54:09;19.10;59.90
37806;DHT22;25082;50.870;0.022;2024-03-02T12:56:40;19.10;59.90
37806;DHT22;25082;50.870;0.022;2024-03-02T12:59:21;19.10;60.10
37806;DHT22;25082;50.870;0.022;2024-03-02T13:01:56;19.00;60.10
37806;DHT22;25082;50.870;0.022;2024-03-02T13:04:28;19.10;60.30
37806;DHT22;25082;50.870;0.022;2024-03-02T13:06:55;19.10;60.30
37806;DHT22;25082;50.870;0.022;2024-03-02T13:09:24;19.10;60.40
37806;DHT22;25082;50.870;0.022;2024-03-02T13:11:50;19.10;60.30
37806;DHT22;25082;50.870;0.022;2024-03-02T13:14:16;19.10;60.30
37806;DHT22;25082;50.870;0.022;2024-03-02T13:16:42;19.20;60.30
37806;DHT22;25082;50.870;0.022;2024-03-02T13:19:09;19.20;60.20
37806;DHT22;25082;50.870;0.022;2024-03-02T13:21:35;19.30;60.20
37806;DHT22;25082;50.870;0.022;2024-03-02T13:24:01;19.30;60.20
37806;DHT22;25082;50.870;0.022;2024-03-02T13:26:27;19.40;60.30
37806;DHT22;25082;50.870;0.022;2024-03-02T13:28:53;19.40;60.30
37806;DHT22;25082;50.870;0.022;2024-03-02T13:31:19;19.40;60.20
37806;DHT22;25082;50.870;0.022;2024-03-02T13:33:45;19.40;60.00
37806;DHT22;25082;50.870;0.022;2024-03-02T13:36:11;19.40;60.00
37806;DHT22;25082;50.870;0.022;2024-03-02T13:38:36;19.40;60.00
37806;DHT22;25082;50.870;0.022;2024-03-02T13:41:02;19.50;60.10
37806;DHT22;25082;50.870;0.022;2024-03-02T13:43:28;19.50;60.10
37806;DHT22;25082;50.870;0.022;2024-03-02T13:46:01;19.50;60.10
37806;DHT22;25082;50.870;0.022;2024-03-02T13:48:27;19.50;60.10
37806;DHT22;25082;50.870;0.022;2024-03-02T13:50:53;19.50;60.20
37806;DHT22;25082;50.870;0.022;2024-03-02T13:53:20;19.50;60.30
37806;DHT22;25082;50.870;0.022;2024-03-02T13:55:46;19.50;60.30
37806;DHT22;25082;50.870;0.022;2024-03-02T13:58:12;19.50;60.40
37806;DHT22;25082;50.870;0.022;2024-03-02T14:00:38;19.50;60.30
37806;DHT22;25082;50.870;0.022;2024-03-02T14:03:07;19.60;60.40
37806;DHT22;25082;50.870;0.022;2024-03-02T14:05:33;19.60;60.30
37806;DHT22;25082;50.870;0.022;2024-03-02T14:07:59;19.60;60.30
37806;DHT22;25082;50.870;0.022;2024-03-02T14:10:27;19.60;60.30
37806;DHT22;25082;50.870;0.022;2024-03-02T14:12:54;19.60;60.40
37806;DHT22;25082;50.870;0.022;2024-03-02T14:15:21;19.60;60.30
37806;DHT22;25082;50.870;0.022;2024-03-02T14:17:47;19.60;60.30
37806;DHT22;25082;50.870;0.022;2024-03-02T14:20:12;19.60;60.20
37806;DHT22;25082;50.870;0.022;2024-03-02T14:22:39;19.70;60.20
37806;DHT22;25082;50.870;0.022;2024-03-02T14:25:05;19.60;60.10
37806;DHT22;25082;50.870;0.022;2024-03-02T14:27:31;19.70;60.10
37806;DHT22;25082;50.870;0.022;2024-03-02T14:29:57;19.70;60.00
37806;DHT22;25082;50.870;0.022;2024-03-02T14:32:23;19.70;60.00
37806;DHT22;25082;50.870;0.022;2024-03-02T14:34:49;19.70;59.90
37806;DHT22;25082;50.870;0.022;2024-03-02T14:37:15;19.70;59.90
37806;DHT22;25082;50.870;0.022;2024-03-02T14:39:41;19.70;59.80
37806;DHT22;25082;50.870;0.022;2024-03-02T14:42:07;19.70;59.70
37806;DHT22;25082;50.870;0.022;2024-03-02T14:44:33;19.80;59.70
37806;DHT22;25082;50.870;0.022;2024-03-02T14:47:03;19.80;59.70
37806;DHT22;25082;50.870;0.022;2024-03-02T14:49:32;19.70;59.50
37806;DHT22;25082;50.870;0.022;2024-03-02T14:52:01;19.70;59.60
37806;DHT22;25082;50.870;0.022;2024-03-02T14:54:27;19.80;59.60
37806;DHT22;25082;50.870;0.022;2024-03-02T14:56:53;19.70;59.60
37806;DHT22;25082;50.870;0.022;2024-03-02T14:59:18;19.70;59.60
37806;DHT22;25082;50.870;0.022;2024-03-02T15:01:44;19.70;59.60
37806;DHT22;25082;50.870;0.022;2024-03-02T15:04:12;19.70;59.50
37806;DHT22;25082;50.870;0.022;2024-03-02T15:06:40;19.70;59.50
37806;DHT22;25082;50.870;0.022;2024-03-02T15:09:06;19.70;59.50
37806;DHT22;25082;50.870;0.022;2024-03-02T15:11:31;19.80;59.60
37806;DHT22;25082;50.870;0.022;2024-03-02T15:13:57;19.80;59.60
37806;DHT22;25082;50.870;0.022;2024-03-02T15:16:23;19.80;59.60
37806;DHT22;25082;50.870;0.022;2024-03-02T15:18:49;19.80;59.60
37806;DHT22;25082;50.870;0.022;2024-03-02T15:21:15;19.80;59.50
37806;DHT22;25082;50.870;0.022;2024-03-02T15:23:41;19.80;59.50
37806;DHT22;25082;50.870;0.022;2024-03-02T15:26:08;19.90;59.50
37806;DHT22;25082;50.870;0.022;2024-03-02T15:28:34;19.90;60.00
37806;DHT22;25082;50.870;0.022;2024-03-02T15:31:00;19.90;59.40
37806;DHT22;25082;50.870;0.022;2024-03-02T15:33:25;19.90;59.40
37806;DHT22;25082;50.870;0.022;2024-03-02T15:35:58;19.90;59.40
37806;DHT22;25082;50.870;0.022;2024-03-02T15:38:25;19.90;59.30
37806;DHT22;25082;50.870;0.022;2024-03-02T15:40:51;19.90;59.40
37806;DHT22;25082;50.870;0.022;2024-03-02T15:43:16;19.80;59.30